Venus Seven — H9RN — position and weather

sailwx.info

Track history (hours):
 
Tides and Currents Weather Stations Pressure Air Temp Water Temp Dewpoint Dewpoint Depression Visibility Wind Speed Wind Dir Waves Ship Positions

Venus Seven

Last reported at 2015-Jan-26 08:25 UTC. Time now 2015-Jan-28 16:20 UTC.
Position N 34°35' E 134°51'.

Length 93 m; draft 6.5 m.

Type: Cargo ship. MMSI: 353405000.

Date/timePositionNaut miles runAvg speedWind from/ knotsBaromVisibWave heightAir tempDewpointWater temp
2015-Jan-26 08:25N 34°35' E 134°51'910.6
2015-Jan-26 07:32N 34°37' E 135°02'1212.6
2015-Jan-26 06:33N 34°36' E 135°17'7 6.2
2015-Jan-26 05:28N 34°38' E 135°25'0 0.0
2015-Jan-26 04:22N 34°38' E 135°25'0 0.0
2015-Jan-26 03:28N 34°38' E 135°25'0 0.0
2015-Jan-26 02:16N 34°38' E 135°25'0 0.0
2015-Jan-26 01:22N 34°38' E 135°25'0 0.0
2015-Jan-26 00:28N 34°38' E 135°25'0 0.0
2015-Jan-25 23:28N 34°38' E 135°25'0 0.0
2015-Jan-25 22:28N 34°38' E 135°25'2 1.8
2015-Jan-25 21:33N 34°37' E 135°23'0 0.1
2015-Jan-25 20:33N 34°37' E 135°23'0 0.0
2015-Jan-25 19:33N 34°37' E 135°23'0 0.0
2015-Jan-25 18:33N 34°37' E 135°23'0 0.0
2015-Jan-25 17:27N 34°37' E 135°23'0 0.0
2015-Jan-25 16:33N 34°37' E 135°23'0 0.0
2015-Jan-25 15:33N 34°37' E 135°23'0 0.0
2015-Jan-25 14:33N 34°37' E 135°23'0 0.0
2015-Jan-25 13:27N 34°37' E 135°23'0 0.0
2015-Jan-25 12:33N 34°37' E 135°23'0 0.0
2015-Jan-25 11:27N 34°37' E 135°23'0 0.0
2015-Jan-25 10:26N 34°37' E 135°23'0 0.0
2015-Jan-25 09:26N 34°37' E 135°23'0 0.0
2015-Jan-25 08:32N 34°37' E 135°23'0 0.0
2015-Jan-25 07:14N 34°37' E 135°23'0 0.0
2015-Jan-25 06:21N 34°37' E 135°23'0 0.1
2015-Jan-25 05:32N 34°37' E 135°23'0 0.0
2015-Jan-25 04:32N 34°37' E 135°23'0 0.0
2015-Jan-25 03:26N 34°37' E 135°23'0 0.0
2015-Jan-25 02:32N 34°37' E 135°23'0 0.0
2015-Jan-25 01:26N 34°37' E 135°23'0 0.0
2015-Jan-25 00:26N 34°37' E 135°23'0 0.0
2015-Jan-24 23:20N 34°37' E 135°23'0 0.0
2015-Jan-24 22:26N 34°37' E 135°23'0 0.0
2015-Jan-24 21:20N 34°37' E 135°23'0 0.0
2015-Jan-24 20:26N 34°37' E 135°23'0 0.0
2015-Jan-24 19:32N 34°37' E 135°23'0 0.0
2015-Jan-24 18:32N 34°37' E 135°23'0 0.0
2015-Jan-24 17:32N 34°37' E 135°23'0 0.0
2015-Jan-24 16:08N 34°37' E 135°23'0 0.0
2015-Jan-24 15:32N 34°37' E 135°23'0 0.0
2015-Jan-24 14:32N 34°37' E 135°23'0 0.1
2015-Jan-24 13:32N 34°37' E 135°23'0 0.1
2015-Jan-24 12:22N 34°37' E 135°23'910.8
2015-Jan-24 11:33N 34°31' E 135°15'2311.4
2015-Jan-24 09:33N 34°13' E 134°58'1312.3
2015-Jan-24 08:30N 34°00' E 134°56'  
2015-Jan-19 15:23N 22°46' E 120°06'1113.3
2015-Jan-19 14:34N 22°37' E 120°11'7 1.2
2015-Jan-19 08:33N 22°34' E 120°19'3 3.0
2015-Jan-19 07:30N 22°37' E 120°17'0 0.0
2015-Jan-19 06:30N 22°37' E 120°17'0 0.0
2015-Jan-19 05:30N 22°37' E 120°17'0 0.0
2015-Jan-19 04:30N 22°37' E 120°17'0 0.0
2015-Jan-19 03:30N 22°37' E 120°17'0 0.0
2015-Jan-19 02:30N 22°37' E 120°17'0 0.0
2015-Jan-19 01:30N 22°37' E 120°17'0 0.0
2015-Jan-19 00:30N 22°37' E 120°17'0 0.3
2015-Jan-18 23:33N 22°37' E 120°17'7 7.3
2015-Jan-18 22:33N 22°38' E 120°09'2 2.3
2015-Jan-18 21:33N 22°40' E 120°07'0 0.3
2015-Jan-18 20:33N 22°40' E 120°08'1411.3
2015-Jan-18 19:20N 22°52' E 120°01'  
Track history (hours):
 
Tides and Currents Weather Stations Pressure Air Temp Water Temp Dewpoint Dewpoint Depression Visibility Wind Speed Wind Dir Waves Ship Positions

Venus Seven

Last reported at 2015-Jan-26 08:25 UTC. Time now 2015-Jan-28 16:20 UTC.
Position N 34°35' E 134°51'.

Length 93 m; draft 6.5 m.

Type: Cargo ship. MMSI: 353405000.

Date/timePositionNaut miles runAvg speedWind from/ knotsBaromVisibWave heightAir tempDewpointWater temp
2015-Jan-26 08:25N 34°35' E 134°51'910.6
2015-Jan-26 07:32N 34°37' E 135°02'1212.6
2015-Jan-26 06:33N 34°36' E 135°17'7 6.2
2015-Jan-26 05:28N 34°38' E 135°25'0 0.0
2015-Jan-26 04:22N 34°38' E 135°25'0 0.0
2015-Jan-26 03:28N 34°38' E 135°25'0 0.0
2015-Jan-26 02:16N 34°38' E 135°25'0 0.0
2015-Jan-26 01:22N 34°38' E 135°25'0 0.0
2015-Jan-26 00:28N 34°38' E 135°25'0 0.0
2015-Jan-25 23:28N 34°38' E 135°25'0 0.0
2015-Jan-25 22:28N 34°38' E 135°25'2 1.8
2015-Jan-25 21:33N 34°37' E 135°23'0 0.1
2015-Jan-25 20:33N 34°37' E 135°23'0 0.0
2015-Jan-25 19:33N 34°37' E 135°23'0 0.0
2015-Jan-25 18:33N 34°37' E 135°23'0 0.0
2015-Jan-25 17:27N 34°37' E 135°23'0 0.0
2015-Jan-25 16:33N 34°37' E 135°23'0 0.0
2015-Jan-25 15:33N 34°37' E 135°23'0 0.0
2015-Jan-25 14:33N 34°37' E 135°23'0 0.0
2015-Jan-25 13:27N 34°37' E 135°23'0 0.0
2015-Jan-25 12:33N 34°37' E 135°23'0 0.0
2015-Jan-25 11:27N 34°37' E 135°23'0 0.0
2015-Jan-25 10:26N 34°37' E 135°23'0 0.0
2015-Jan-25 09:26N 34°37' E 135°23'0 0.0
2015-Jan-25 08:32N 34°37' E 135°23'0 0.0
2015-Jan-25 07:14N 34°37' E 135°23'0 0.0
2015-Jan-25 06:21N 34°37' E 135°23'0 0.1
2015-Jan-25 05:32N 34°37' E 135°23'0 0.0
2015-Jan-25 04:32N 34°37' E 135°23'0 0.0
2015-Jan-25 03:26N 34°37' E 135°23'0 0.0
2015-Jan-25 02:32N 34°37' E 135°23'0 0.0
2015-Jan-25 01:26N 34°37' E 135°23'0 0.0
2015-Jan-25 00:26N 34°37' E 135°23'0 0.0
2015-Jan-24 23:20N 34°37' E 135°23'0 0.0
2015-Jan-24 22:26N 34°37' E 135°23'0 0.0
2015-Jan-24 21:20N 34°37' E 135°23'0 0.0
2015-Jan-24 20:26N 34°37' E 135°23'0 0.0
2015-Jan-24 19:32N 34°37' E 135°23'0 0.0
2015-Jan-24 18:32N 34°37' E 135°23'0 0.0
2015-Jan-24 17:32N 34°37' E 135°23'0 0.0
2015-Jan-24 16:08N 34°37' E 135°23'0 0.0
2015-Jan-24 15:32N 34°37' E 135°23'0 0.0
2015-Jan-24 14:32N 34°37' E 135°23'0 0.1
2015-Jan-24 13:32N 34°37' E 135°23'0 0.1
2015-Jan-24 12:22N 34°37' E 135°23'910.8
2015-Jan-24 11:33N 34°31' E 135°15'2311.4
2015-Jan-24 09:33N 34°13' E 134°58'1312.3
2015-Jan-24 08:30N 34°00' E 134°56'  
2015-Jan-19 15:23N 22°46' E 120°06'1113.3
2015-Jan-19 14:34N 22°37' E 120°11'7 1.2
2015-Jan-19 08:33N 22°34' E 120°19'3 3.0
2015-Jan-19 07:30N 22°37' E 120°17'0 0.0
2015-Jan-19 06:30N 22°37' E 120°17'0 0.0
2015-Jan-19 05:30N 22°37' E 120°17'0 0.0
2015-Jan-19 04:30N 22°37' E 120°17'0 0.0
2015-Jan-19 03:30N 22°37' E 120°17'0 0.0
2015-Jan-19 02:30N 22°37' E 120°17'0 0.0
2015-Jan-19 01:30N 22°37' E 120°17'0 0.0
2015-Jan-19 00:30N 22°37' E 120°17'0 0.3
2015-Jan-18 23:33N 22°37' E 120°17'7 7.3
2015-Jan-18 22:33N 22°38' E 120°09'2 2.3
2015-Jan-18 21:33N 22°40' E 120°07'0 0.3
2015-Jan-18 20:33N 22°40' E 120°08'1411.3
2015-Jan-18 19:20N 22°52' E 120°01'  

Dump ship's entire track history